Elkhart, IN

10:57 PM EST on November 23, 2014 (GMT -0500)
Goshen Municipal | Change Station
CLOSE
Current Station
Airport
Location: Goshen,
Elevation: 827 ft
Nearby Weather Stations
Active Advisory: Wind Advisory Active Notice: Record Report

Elev 827 ft 41.53 °N, 85.79 °W | Updated 45 minutes ago

Rain
Rain
55 °F
Feels Like 55 °F
N
8
Wind Variable Wind from SE

Today
High -- | Low -- °F
--% Chance of Precip.
Yesterday
High -- | Low -- °F
Precip. -- in
7:42 AM 5:17 PM
Waxing Crescent, 3% visible
Pressure 29.22 in
Visibility 3.0 miles
Clouds Mostly Cloudy 700 ft
Overcast 2800 ft
Dew Point 48 °F
Humidity 77%
Rainfall 1.45 in
Snow Depth Not available.
UV 0 out of 12
Pollen .10 out of 12
Air Quality Not available.
Flu Activity Not available.
SPECI KGSH 240312Z AUTO 13007KT 3SM RA BKN007 OVC028 13/09 A2922 RMK AO2 PRESFR P0010 T01280089

More Conditions Fewer Conditions

Pressure 29.22 in
Visibility 3.0 miles
Clouds Mostly Cloudy 700 ft
Overcast 2800 ft
Dew Point 48 °F
Humidity 77%
Rainfall 1.45 in
Snow Depth Not available.
UV 0 out of 12
Pollen .10 out of 12
Air Quality Not available.
Flu Activity Not available.
SPECI KGSH 240312Z AUTO 13007KT 3SM RA BKN007 OVC028 13/09 A2922 RMK AO2 PRESFR P0010 T01280089

More Conditions Fewer Conditions

10-Day Weather Forecast

Almanac

Astronomy

Nov. 23, 2014 Rise Set
Actual Time
Civil Twilight
Nautical Twilight
Astronomical Twilight
Moon
Length of Visible Light
Length of Day
Tomorrow will be .
, % of the Moon is Illuminated

Today's Extremes

State Highs State Lows

Community

WunderPhotos

Upload Photos

1,773,262 photos uploaded!

WunderBlogs® & News

Nearby

Air Quality

  Air Quality AQ Index Pollutant
Not available.

Snow Depth

Station Depth Elevation

Earthquake Activity

City Distance Mag. Time & Date
Minimum magnitude displayed is 2.5.

Coastal Water Temperatures

Place Temperature

Nearby Weather Stations